Time;durP1;ratioP1;P1;durP2;ratioP2;P2;SDS_P1;SDS_P2;PMS_P1;PMS_P2;Temp;Humidity;BMP_temperature;BMP_pressure;BME280_temperature;BME280_humidity;BME280_pressure;Samples;Min_cycle;Max_cycle;Signal;HPM_P1;HPM_P2
2022/01/27 00:01:29;;;;;;;4.63;4.33;;;2.20;99.90;;;;;;5027757;28;20268;-60
2022/01/27 00:04:12;;;;;;;4.80;4.50;;;2.20;99.90;;;;;;5030884;28;20200;-63
2022/01/27 00:06:40;;;;;;;4.63;4.33;;;2.10;99.90;;;;;;5027528;28;20193;-62
2022/01/27 00:09:15;;;;;;;4.53;4.23;;;2.20;99.90;;;;;;5025922;28;20736;-60
2022/01/27 00:11:45;;;;;;;4.70;4.40;;;2.20;99.90;;;;;;5028203;28;20232;-62
2022/01/27 00:14:15;;;;;;;5.00;4.70;;;2.20;99.90;;;;;;5029047;28;20382;-63
2022/01/27 00:16:54;;;;;;;5.10;4.80;;;2.20;99.90;;;;;;5030102;28;20574;-63
2022/01/27 00:19:30;;;;;;;5.47;5.17;;;2.10;99.90;;;;;;5025462;28;20201;-60
2022/01/27 00:22:01;;;;;;;6.77;6.27;;;2.00;99.90;;;;;;5026730;28;20229;-60
2022/01/27 00:24:36;;;;;;;7.07;6.57;;;2.00;99.90;;;;;;5019804;28;20197;-62
2022/01/27 00:27:03;;;;;;;7.00;6.60;;;1.90;99.90;;;;;;5012570;28;20287;-61
2022/01/27 00:29:31;;;;;;;7.90;7.30;;;1.90;99.90;;;;;;5012638;28;20236;-60
2022/01/27 00:31:59;;;;;;;7.03;6.53;;;1.80;99.90;;;;;;5013432;28;20285;-61
2022/01/27 00:34:29;;;;;;;7.07;6.63;;;1.80;99.90;;;;;;5031143;28;20638;-61
2022/01/27 00:37:06;;;;;;;7.23;6.73;;;1.80;99.90;;;;;;5020171;28;20205;-60
2022/01/27 00:39:33;;;;;;;7.33;6.83;;;1.80;99.90;;;;;;5035491;28;20196;-61
2022/01/27 00:42:01;;;;;;;8.30;7.70;;;1.80;99.90;;;;;;5036106;28;20248;-62
2022/01/27 00:44:28;;;;;;;8.60;8.00;;;1.80;99.90;;;;;;5021440;28;20201;-60
2022/01/27 00:46:57;;;;;;;7.80;7.20;;;1.80;99.90;;;;;;5023437;28;20659;-61
2022/01/27 00:49:30;;;;;;;8.23;7.63;;;1.70;99.90;;;;;;5018622;28;20731;-60
2022/01/27 00:52:03;;;;;;;7.30;6.80;;;1.70;99.90;;;;;;5013351;28;20332;-62
2022/01/27 00:54:38;;;;;;;7.50;7.00;;;1.70;99.90;;;;;;5013525;28;20237;-61
2022/01/27 00:57:11;;;;;;;7.40;6.80;;;1.80;99.90;;;;;;5016050;28;20297;-62
2022/01/27 00:59:53;;;;;;;7.40;6.90;;;1.90;99.90;;;;;;5017327;28;20236;-62
2022/01/27 01:02:34;;;;;;;7.53;6.93;;;1.90;99.90;;;;;;5016246;28;21891;-61
2022/01/27 01:05:14;;;;;;;6.80;6.37;;;1.90;99.90;;;;;;5015927;28;20597;-61
2022/01/27 01:07:48;;;;;;;7.40;6.90;;;1.90;99.90;;;;;;5023522;28;20324;-62
2022/01/27 01:16:11;;;;;;;6.47;6.07;;;2.00;99.90;;;;;;4995959;28;20221;-61
2022/01/27 01:18:50;;;;;;;6.43;6.03;;;2.10;99.90;;;;;;5025719;28;20204;-62
2022/01/27 01:21:33;;;;;;;5.87;5.47;;;2.10;99.90;;;;;;5027641;28;20247;-59
2022/01/27 01:29:53;;;;;;;6.30;5.90;;;2.10;99.90;;;;;;5029616;28;20327;-61
2022/01/27 01:32:41;;;;;;;7.10;6.60;;;2.10;99.90;;;;;;5029626;28;20572;-61
2022/01/27 01:35:17;;;;;;;8.33;7.73;;;2.20;99.90;;;;;;5032054;28;20244;-61
2022/01/27 01:37:48;;;;;;;7.90;7.30;;;2.10;99.90;;;;;;5028008;28;20250;-61
2022/01/27 01:40:22;;;;;;;8.40;7.80;;;1.90;99.90;;;;;;5027334;28;20257;-61
2022/01/27 01:42:53;;;;;;;7.20;6.70;;;1.90;99.90;;;;;;5031600;28;20286;-62
2022/01/27 01:45:26;;;;;;;8.27;7.67;;;1.80;99.90;;;;;;5030085;28;20276;-61
2022/01/27 01:47:53;;;;;;;8.10;7.50;;;1.70;99.90;;;;;;5031881;28;20211;-61
2022/01/27 01:50:21;;;;;;;7.63;7.13;;;1.70;99.90;;;;;;5026098;28;20733;-61
2022/01/27 01:52:48;;;;;;;7.57;7.07;;;1.60;99.90;;;;;;5031976;28;20363;-62
2022/01/27 01:55:15;;;;;;;7.50;7.00;;;1.70;99.90;;;;;;5032975;28;20263;-60
2022/01/27 01:57:43;;;;;;;7.87;7.37;;;1.60;99.90;;;;;;5023031;28;20725;-60
2022/01/27 02:00:13;;;;;;;7.97;7.47;;;1.60;99.90;;;;;;5028098;28;20237;-60
2022/01/27 02:02:44;;;;;;;7.93;7.43;;;1.60;99.90;;;;;;5030667;28;20228;-63
2022/01/27 02:05:12;;;;;;;7.50;7.00;;;1.60;99.90;;;;;;5027631;28;20663;-61
2022/01/27 02:07:57;;;;;;;8.00;7.40;;;1.60;99.90;;;;;;5025149;28;20214;-61
2022/01/27 02:17:49;;;;;;;7.93;7.43;;;1.60;99.90;;;;;;5024462;28;20251;-61
2022/01/27 02:19:16;;;;;;;7.70;7.20;;;1.50;99.90;;;;;;5016940;28;20216;-61
2022/01/27 02:21:49;;;;;;;7.30;6.80;;;1.60;99.90;;;;;;5028018;28;20311;-62
2022/01/27 02:24:18;;;;;;;7.73;7.13;;;1.70;99.90;;;;;;5032390;28;20254;-62
2022/01/27 02:26:49;;;;;;;7.63;7.13;;;1.60;99.90;;;;;;5031061;28;20283;-62
2022/01/27 02:29:17;;;;;;;7.80;7.30;;;1.70;99.90;;;;;;5031095;28;20193;-61
2022/01/27 02:31:51;;;;;;;7.70;7.10;;;1.60;99.90;;;;;;5029997;28;20230;-61
2022/01/27 02:34:18;;;;;;;8.67;8.07;;;1.60;99.90;;;;;;5030492;28;20291;-61
2022/01/27 02:36:48;;;;;;;8.00;7.40;;;1.60;99.90;;;;;;5031982;28;20236;-61
2022/01/27 02:39:16;;;;;;;7.40;6.90;;;1.70;99.90;;;;;;5031949;28;20212;-62
2022/01/27 02:41:47;;;;;;;8.47;7.87;;;1.70;99.90;;;;;;5031563;28;20232;-62
2022/01/27 02:44:32;;;;;;;7.83;7.33;;;1.70;99.90;;;;;;5031645;28;20211;-61
2022/01/27 02:47:02;;;;;;;8.10;7.50;;;1.60;99.90;;;;;;5032385;28;20234;-62
2022/01/27 02:49:32;;;;;;;8.00;7.40;;;1.60;99.90;;;;;;5036484;28;20193;-60
2022/01/27 02:52:07;;;;;;;7.40;6.90;;;1.70;99.90;;;;;;5032756;28;20233;-62
2022/01/27 02:54:39;;;;;;;7.67;7.07;;;1.70;99.90;;;;;;5031185;28;20307;-61
2022/01/27 02:57:07;;;;;;;8.20;7.60;;;1.70;99.90;;;;;;5031527;28;20204;-62
2022/01/27 02:59:34;;;;;;;8.50;8.00;;;1.70;99.90;;;;;;5031107;28;20208;-61
2022/01/27 03:02:03;;;;;;;8.70;8.10;;;1.60;99.90;;;;;;5031480;28;20256;-61
2022/01/27 03:04:33;;;;;;;7.87;7.33;;;1.50;99.90;;;;;;5031087;28;20295;-62
2022/01/27 03:07:07;;;;;;;8.00;7.40;;;1.50;99.90;;;;;;5033294;28;20266;-62
2022/01/27 03:09:35;;;;;;;8.33;7.73;;;1.50;99.90;;;;;;5034842;28;20211;-61
2022/01/27 03:12:07;;;;;;;9.27;8.67;;;1.50;99.90;;;;;;5035023;28;20602;-63
2022/01/27 03:14:35;;;;;;;8.67;7.97;;;1.40;99.90;;;;;;5034767;28;20745;-61
2022/01/27 03:17:05;;;;;;;7.83;7.27;;;1.40;99.90;;;;;;5043868;28;20216;-61
2022/01/27 03:19:36;;;;;;;8.47;7.87;;;1.40;99.90;;;;;;5048680;28;20205;-61
2022/01/27 03:22:06;;;;;;;8.70;8.10;;;1.50;99.90;;;;;;5045564;28;20225;-61
2022/01/27 03:24:34;;;;;;;7.70;7.20;;;1.40;99.90;;;;;;5048871;28;20215;-61
2022/01/27 03:27:13;;;;;;;8.97;8.37;;;1.50;99.90;;;;;;5048203;28;20208;-62
2022/01/27 03:29:47;;;;;;;8.60;8.00;;;1.40;99.90;;;;;;5040936;28;20210;-61
2022/01/27 03:32:15;;;;;;;8.47;7.87;;;1.50;99.90;;;;;;5034612;28;21023;-61
2022/01/27 03:34:42;;;;;;;7.80;7.30;;;1.40;99.90;;;;;;5034273;28;20209;-61
2022/01/27 03:37:14;;;;;;;8.13;7.63;;;1.40;99.90;;;;;;5034393;28;20591;-62
2022/01/27 03:39:46;;;;;;;8.03;7.53;;;1.40;99.90;;;;;;5034478;28;20267;-62
2022/01/27 03:42:13;;;;;;;8.80;8.20;;;1.50;99.90;;;;;;5035286;28;20232;-61
2022/01/27 03:44:43;;;;;;;9.27;8.67;;;1.50;99.90;;;;;;5040077;28;20217;-63
2022/01/27 03:47:13;;;;;;;8.43;7.83;;;1.30;99.90;;;;;;5040799;28;20239;-62
2022/01/27 03:49:41;;;;;;;8.93;8.33;;;1.20;99.90;;;;;;5034464;28;20209;-61
2022/01/27 03:52:08;;;;;;;7.87;7.37;;;1.00;99.90;;;;;;5072815;22;20238;-65
2022/01/27 03:54:36;;;;;;;7.30;6.80;;;1.00;99.90;;;;;;5064592;28;20223;-65
2022/01/27 03:57:03;;;;;;;7.17;6.70;;;1.30;99.90;;;;;;5055054;28;20234;-63
2022/01/27 03:59:31;;;;;;;7.80;7.20;;;1.50;99.90;;;;;;5046682;28;20210;-64
2022/01/27 04:01:58;;;;;;;8.07;7.57;;;1.40;99.90;;;;;;5054907;28;20287;-64
2022/01/27 04:04:26;;;;;;;8.67;8.07;;;1.20;99.90;;;;;;5054321;28;20207;-64
2022/01/27 04:06:53;;;;;;;8.60;8.00;;;1.10;99.90;;;;;;5052910;28;20204;-63
2022/01/27 04:09:20;;;;;;;8.60;8.10;;;1.20;99.90;;;;;;5053235;28;20235;-65
2022/01/27 04:11:48;;;;;;;7.63;7.13;;;1.30;99.90;;;;;;5062659;28;20243;-66
2022/01/27 04:14:15;;;;;;;8.10;7.60;;;1.40;99.90;;;;;;5058434;28;20200;-64
2022/01/27 04:16:43;;;;;;;7.53;7.03;;;1.40;99.90;;;;;;5052967;28;20228;-63
2022/01/27 04:19:09;;;;;;;8.00;7.40;;;1.40;99.90;;;;;;5052285;28;20235;-64
2022/01/27 04:21:37;;;;;;;8.57;7.97;;;1.50;99.90;;;;;;5053401;28;20722;-64
2022/01/27 04:24:04;;;;;;;7.67;7.27;;;1.60;99.90;;;;;;5056689;28;20275;-64
2022/01/27 04:26:38;;;;;;;7.77;7.17;;;1.60;99.90;;;;;;5057596;28;20246;-66
2022/01/27 04:29:07;;;;;;;7.63;7.13;;;1.60;99.90;;;;;;5055163;28;20215;-65
2022/01/27 04:31:34;;;;;;;6.77;6.37;;;1.70;99.90;;;;;;5057752;28;20235;-65
2022/01/27 04:34:01;;;;;;;8.07;7.50;;;1.70;99.90;;;;;;5055996;28;20552;-65
2022/01/27 04:36:30;;;;;;;7.07;6.63;;;1.70;99.90;;;;;;5055055;28;20266;-64
2022/01/27 04:39:06;;;;;;;7.20;6.70;;;1.50;99.90;;;;;;5053361;28;20727;-64
2022/01/27 04:41:39;;;;;;;6.73;6.33;;;1.50;99.90;;;;;;5062796;28;20255;-65
2022/01/27 04:44:16;;;;;;;7.70;7.20;;;1.50;99.90;;;;;;5063212;28;20192;-65
2022/01/27 04:46:49;;;;;;;7.33;6.83;;;1.50;99.90;;;;;;5053226;28;20572;-64
2022/01/27 04:49:16;;;;;;;7.00;6.50;;;1.60;99.90;;;;;;5052921;28;20278;-63
2022/01/27 04:51:43;;;;;;;7.90;7.40;;;1.60;99.90;;;;;;5052511;28;20243;-65
2022/01/27 04:54:15;;;;;;;6.73;6.33;;;1.70;99.90;;;;;;5052332;28;20587;-65
2022/01/27 04:56:43;;;;;;;7.23;6.77;;;1.50;99.90;;;;;;5052098;28;20239;-65
2022/01/27 04:59:17;;;;;;;6.40;6.00;;;1.60;99.90;;;;;;5052333;28;20294;-64
2022/01/27 05:01:48;;;;;;;6.63;6.23;;;1.60;99.90;;;;;;5052071;28;20220;-65
2022/01/27 05:04:18;;;;;;;7.40;6.90;;;1.50;99.90;;;;;;5052273;28;20530;-65
2022/01/27 05:06:45;;;;;;;6.90;6.40;;;1.50;99.90;;;;;;5052199;28;20214;-64
2022/01/27 05:09:12;;;;;;;6.93;6.50;;;1.60;99.90;;;;;;5051632;28;20607;-64
2022/01/27 05:11:47;;;;;;;6.43;6.03;;;1.60;99.90;;;;;;5052503;28;20311;-65
2022/01/27 05:14:18;;;;;;;7.00;6.60;;;1.60;99.90;;;;;;5055140;28;20187;-66
2022/01/27 05:16:45;;;;;;;6.70;6.30;;;1.70;99.90;;;;;;5070623;28;20304;-65
2022/01/27 05:19:12;;;;;;;6.63;6.23;;;1.70;99.90;;;;;;5051787;28;20239;-64
2022/01/27 05:21:39;;;;;;;6.23;5.83;;;1.70;99.90;;;;;;5052050;28;20224;-64
2022/01/27 05:24:06;;;;;;;6.43;6.03;;;1.70;99.90;;;;;;5053028;28;20271;-64
2022/01/27 05:26:34;;;;;;;6.57;6.17;;;1.80;99.90;;;;;;5052190;28;20584;-64
2022/01/27 05:29:01;;;;;;;6.33;5.93;;;1.70;99.90;;;;;;5051261;28;20681;-65
2022/01/27 05:31:29;;;;;;;6.33;5.93;;;1.70;99.90;;;;;;5034535;28;20248;-65
2022/01/27 05:33:56;;;;;;;6.60;6.20;;;1.70;99.90;;;;;;5044713;28;20287;-65
2022/01/27 05:36:23;;;;;;;6.83;6.37;;;1.70;99.90;;;;;;5058654;28;20258;-64
2022/01/27 05:38:50;;;;;;;6.67;6.27;;;1.70;99.90;;;;;;5059431;28;20268;-64
2022/01/27 05:41:17;;;;;;;7.00;6.57;;;1.70;99.90;;;;;;5059079;28;20223;-64
2022/01/27 05:43:45;;;;;;;6.73;6.33;;;1.80;99.90;;;;;;5041155;28;20287;-64
2022/01/27 05:46:12;;;;;;;6.60;6.20;;;1.80;99.90;;;;;;5051633;28;20212;-64
2022/01/27 05:48:40;;;;;;;6.90;6.40;;;1.80;99.90;;;;;;5051447;28;20290;-64
2022/01/27 05:51:07;;;;;;;5.73;5.40;;;1.80;99.90;;;;;;5051116;28;20231;-64
2022/01/27 05:53:35;;;;;;;6.33;5.83;;;1.80;99.90;;;;;;5051306;28;20210;-65
2022/01/27 05:56:03;;;;;;;6.40;6.00;;;1.80;99.90;;;;;;5050903;28;20272;-64
2022/01/27 05:58:30;;;;;;;6.77;6.27;;;1.90;99.90;;;;;;5050200;28;20236;-65
2022/01/27 06:00:56;;;;;;;7.60;7.10;;;1.90;99.90;;;;;;5050870;28;20794;-64
2022/01/27 06:03:23;;;;;;;7.80;7.20;;;1.80;99.90;;;;;;5051506;28;20266;-65
2022/01/27 06:05:52;;;;;;;8.00;7.50;;;1.60;99.90;;;;;;5053715;28;20663;-64
2022/01/27 06:08:18;;;;;;;7.97;7.37;;;1.40;99.90;;;;;;5064361;28;20231;-63
2022/01/27 06:10:45;;;;;;;7.70;7.20;;;1.40;99.90;;;;;;5049366;28;20656;-64
2022/01/27 06:13:12;;;;;;;7.80;7.30;;;1.30;99.90;;;;;;5051553;28;20579;-65
2022/01/27 06:15:39;;;;;;;7.53;7.03;;;1.30;99.90;;;;;;5050806;28;20298;-65
2022/01/27 06:18:06;;;;;;;7.67;7.17;;;1.30;99.90;;;;;;5051023;28;20588;-65
2022/01/27 06:20:33;;;;;;;7.53;7.03;;;1.30;99.90;;;;;;5051094;28;20659;-65
2022/01/27 06:23:01;;;;;;;7.67;7.17;;;1.20;99.90;;;;;;5051222;28;20204;-64
2022/01/27 06:25:30;;;;;;;8.40;7.90;;;1.20;99.90;;;;;;5042453;28;20287;-65
2022/01/27 06:27:57;;;;;;;8.37;7.77;;;1.10;99.90;;;;;;5032448;28;20208;-64
2022/01/27 06:30:24;;;;;;;9.43;8.73;;;1.00;99.90;;;;;;5022982;28;20209;-64
2022/01/27 06:32:51;;;;;;;8.97;8.37;;;1.00;99.90;;;;;;5020496;28;20283;-65
2022/01/27 06:35:19;;;;;;;8.50;7.90;;;1.00;99.90;;;;;;5044083;28;20597;-63
2022/01/27 06:37:47;;;;;;;9.77;9.07;;;0.90;99.90;;;;;;5051122;28;20315;-65
2022/01/27 06:40:16;;;;;;;8.90;8.30;;;0.90;99.90;;;;;;5053115;28;20211;-67
2022/01/27 06:42:45;;;;;;;8.83;8.20;;;0.80;99.90;;;;;;5058823;28;20235;-65
2022/01/27 06:45:13;;;;;;;9.73;9.03;;;0.70;99.90;;;;;;5058428;28;20212;-63
2022/01/27 06:47:40;;;;;;;9.37;8.67;;;0.70;99.90;;;;;;5056653;28;20242;-63
2022/01/27 06:50:08;;;;;;;7.80;7.30;;;0.70;99.90;;;;;;5054117;28;20222;-64
2022/01/27 06:52:35;;;;;;;8.70;8.10;;;0.80;99.90;;;;;;5054644;28;20306;-65
2022/01/27 06:55:03;;;;;;;8.23;7.70;;;0.90;99.90;;;;;;5054815;28;20979;-66
2022/01/27 06:57:33;;;;;;;10.50;9.70;;;1.10;99.90;;;;;;5055038;28;20310;-64
2022/01/27 07:00:00;;;;;;;9.90;9.20;;;0.90;99.90;;;;;;5052667;28;20211;-63
2022/01/27 07:02:27;;;;;;;10.30;9.60;;;0.70;99.90;;;;;;5055174;28;20224;-63
2022/01/27 07:04:54;;;;;;;9.73;9.03;;;0.70;99.90;;;;;;5055738;28;20639;-62
2022/01/27 07:07:21;;;;;;;9.53;8.83;;;0.70;99.90;;;;;;5054352;28;20670;-62
2022/01/27 07:09:48;;;;;;;9.30;8.60;;;0.70;99.90;;;;;;5028053;28;20673;-63
2022/01/27 07:12:15;;;;;;;9.23;8.57;;;0.80;99.90;;;;;;5031943;28;20220;-64
2022/01/27 07:14:43;;;;;;;9.03;8.43;;;0.80;99.90;;;;;;5054660;28;20207;-64
2022/01/27 07:17:12;;;;;;;8.80;8.20;;;0.70;99.90;;;;;;5042705;28;20225;-65
2022/01/27 07:19:39;;;;;;;8.13;7.63;;;0.60;99.90;;;;;;5027198;28;20208;-64
2022/01/27 07:22:06;;;;;;;9.17;8.57;;;0.60;99.90;;;;;;5054562;28;20712;-64
2022/01/27 07:24:33;;;;;;;8.00;7.50;;;0.70;99.90;;;;;;5062452;28;20271;-64
2022/01/27 07:27:00;;;;;;;8.90;8.30;;;0.70;99.90;;;;;;5066213;28;20215;-65
2022/01/27 07:29:27;;;;;;;7.73;7.23;;;0.80;99.90;;;;;;5060175;28;20208;-65
2022/01/27 07:31:55;;;;;;;8.13;7.60;;;0.80;99.90;;;;;;5040153;28;20262;-64
2022/01/27 07:34:22;;;;;;;7.90;7.40;;;0.80;99.90;;;;;;5033497;28;20212;-63
2022/01/27 07:36:54;;;;;;;8.37;7.77;;;0.80;99.90;;;;;;5038578;28;20243;-65
2022/01/27 07:39:21;;;;;;;8.30;7.70;;;1.00;99.90;;;;;;5054271;28;20291;-64
2022/01/27 07:41:49;;;;;;;8.80;8.20;;;1.00;99.90;;;;;;5044782;28;20228;-64
2022/01/27 07:44:16;;;;;;;7.23;6.73;;;1.00;99.90;;;;;;5043420;28;20196;-65
2022/01/27 07:46:43;;;;;;;7.73;7.23;;;0.90;99.90;;;;;;5042485;28;20214;-65
2022/01/27 07:49:11;;;;;;;7.67;7.17;;;0.90;99.90;;;;;;5058440;28;20291;-64
2022/01/27 07:51:38;;;;;;;8.50;7.97;;;0.90;99.90;;;;;;5053985;28;20318;-64
2022/01/27 07:54:05;;;;;;;7.07;6.57;;;1.00;99.90;;;;;;5048640;28;20338;-63
2022/01/27 07:56:33;;;;;;;7.20;6.70;;;0.90;99.90;;;;;;5053233;28;20215;-63
2022/01/27 07:59:00;;;;;;;8.00;7.50;;;0.90;99.90;;;;;;5060619;28;20207;-63
2022/01/27 08:01:27;;;;;;;7.60;7.10;;;0.90;99.90;;;;;;5054408;28;20224;-64
2022/01/27 08:03:54;;;;;;;6.73;6.33;;;0.80;99.90;;;;;;5068031;28;20275;-64
2022/01/27 08:06:22;;;;;;;7.07;6.57;;;0.80;99.90;;;;;;5069425;28;20333;-64
2022/01/27 08:08:50;;;;;;;7.60;7.10;;;0.80;99.90;;;;;;5062430;28;20243;-63
2022/01/27 08:11:18;;;;;;;7.57;7.07;;;0.80;99.90;;;;;;5055231;28;20224;-63
2022/01/27 08:13:45;;;;;;;7.10;6.60;;;0.80;99.90;;;;;;5044531;28;20670;-63
2022/01/27 08:16:12;;;;;;;7.10;6.70;;;0.80;99.90;;;;;;5030850;28;20707;-63
2022/01/27 08:18:39;;;;;;;7.13;6.63;;;0.80;99.90;;;;;;5053711;28;20246;-63
2022/01/27 08:21:06;;;;;;;8.07;7.57;;;0.80;99.90;;;;;;5052685;28;20641;-64
2022/01/27 08:23:34;;;;;;;7.03;6.53;;;0.90;99.90;;;;;;5053014;28;20231;-63
2022/01/27 08:26:06;;;;;;;6.87;6.37;;;0.90;99.90;;;;;;5052706;28;20208;-63
2022/01/27 08:28:37;;;;;;;6.97;6.57;;;1.00;99.90;;;;;;5053014;28;20246;-63
2022/01/27 08:31:04;;;;;;;7.00;6.50;;;1.10;99.90;;;;;;5052990;28;20266;-63
2022/01/27 08:33:32;;;;;;;6.90;6.40;;;1.20;99.90;;;;;;5053226;28;20211;-63
2022/01/27 08:36:00;;;;;;;6.50;6.10;;;1.20;99.90;;;;;;5052649;28;20207;-63
2022/01/27 08:38:27;;;;;;;6.97;6.47;;;1.40;99.90;;;;;;5052726;28;20266;-64
2022/01/27 08:40:55;;;;;;;7.23;6.73;;;1.30;99.90;;;;;;5053744;28;20263;-64
2022/01/27 08:43:22;;;;;;;6.90;6.40;;;1.40;99.90;;;;;;5052918;28;20596;-63
2022/01/27 08:45:50;;;;;;;6.37;5.97;;;1.40;99.90;;;;;;5052697;28;20239;-64
2022/01/27 08:48:20;;;;;;;6.33;5.93;;;1.40;99.90;;;;;;5052790;28;20219;-65
2022/01/27 08:50:53;;;;;;;6.97;6.47;;;1.40;99.90;;;;;;5054569;28;20304;-64
2022/01/27 08:53:19;;;;;;;6.00;5.60;;;1.40;99.90;;;;;;5053198;28;20662;-64
2022/01/27 08:55:49;;;;;;;5.70;5.40;;;1.40;99.90;;;;;;5054011;28;20200;-63
2022/01/27 08:58:17;;;;;;;6.43;6.03;;;1.50;99.90;;;;;;5055898;28;20251;-65
2022/01/27 09:00:44;;;;;;;7.27;6.77;;;1.50;99.90;;;;;;5056611;28;20606;-64
2022/01/27 09:03:11;;;;;;;6.03;5.63;;;1.50;99.90;;;;;;5049643;28;20295;-63
2022/01/27 09:05:38;;;;;;;5.83;5.43;;;1.50;99.90;;;;;;5053002;28;20301;-63
2022/01/27 09:08:05;;;;;;;5.67;5.37;;;1.50;99.90;;;;;;5054675;28;20580;-63
2022/01/27 09:10:33;;;;;;;6.20;5.80;;;1.50;99.90;;;;;;5052236;28;20260;-64
2022/01/27 09:13:00;;;;;;;6.37;5.97;;;1.50;99.90;;;;;;5025614;28;20211;-64
2022/01/27 09:15:29;;;;;;;5.93;5.53;;;1.50;99.90;;;;;;5036477;28;20201;-64
2022/01/27 09:17:58;;;;;;;7.07;6.57;;;1.50;99.90;;;;;;5023434;28;20225;-65
2022/01/27 09:20:25;;;;;;;6.37;5.97;;;1.40;99.90;;;;;;5024410;28;20232;-64
2022/01/27 09:22:55;;;;;;;6.57;6.13;;;1.30;99.90;;;;;;5024835;28;20285;-63
2022/01/27 09:25:26;;;;;;;6.53;6.03;;;1.20;99.90;;;;;;5025920;28;20200;-64
2022/01/27 09:27:55;;;;;;;6.60;6.20;;;1.10;99.90;;;;;;5024617;28;20614;-63
2022/01/27 09:30:22;;;;;;;6.90;6.40;;;1.00;99.90;;;;;;5020243;28;20243;-64
2022/01/27 09:32:50;;;;;;;6.50;6.10;;;1.00;99.90;;;;;;5016220;28;20202;-64
2022/01/27 09:35:18;;;;;;;6.80;6.30;;;1.00;99.90;;;;;;5019422;28;20619;-63
2022/01/27 09:37:45;;;;;;;6.93;6.53;;;1.00;99.90;;;;;;5047318;28;20251;-64
2022/01/27 09:40:12;;;;;;;6.70;6.30;;;0.90;99.90;;;;;;5014265;28;20309;-63
2022/01/27 09:42:42;;;;;;;6.27;5.87;;;1.00;99.90;;;;;;5012394;28;20251;-63
2022/01/27 09:45:10;;;;;;;7.30;6.80;;;1.00;99.90;;;;;;5025131;28;20215;-65
2022/01/27 09:47:41;;;;;;;6.90;6.47;;;1.00;99.90;;;;;;5020490;28;20233;-64
2022/01/27 09:50:24;;;;;;;6.90;6.40;;;0.90;99.90;;;;;;5012171;28;20263;-64
2022/01/27 09:52:51;;;;;;;7.40;6.90;;;0.90;99.90;;;;;;5059768;22;20228;-63
2022/01/27 09:55:19;;;;;;;7.50;7.00;;;0.90;99.90;;;;;;5053113;28;20688;-61
2022/01/27 09:57:46;;;;;;;6.87;6.47;;;0.90;99.90;;;;;;5054241;28;20331;-60
2022/01/27 10:00:15;;;;;;;7.30;6.80;;;1.00;99.90;;;;;;5053461;28;20214;-61
2022/01/27 10:03:01;;;;;;;7.27;6.87;;;1.00;99.90;;;;;;5053473;28;20314;-62
2022/01/27 10:05:30;;;;;;;7.20;6.70;;;1.00;99.90;;;;;;5052992;28;20414;-63
2022/01/27 10:08:02;;;;;;;6.40;6.00;;;1.10;99.90;;;;;;5052986;28;20288;-62
2022/01/27 10:10:34;;;;;;;6.60;6.20;;;1.00;99.90;;;;;;5052366;28;20188;-61
2022/01/27 10:13:04;;;;;;;6.17;5.77;;;1.10;99.90;;;;;;5054031;28;20593;-61
2022/01/27 10:15:37;;;;;;;5.33;5.03;;;1.20;99.90;;;;;;5052581;28;20645;-63
2022/01/27 10:18:07;;;;;;;6.33;5.93;;;1.20;99.90;;;;;;5056328;28;20318;-61
2022/01/27 10:20:36;;;;;;;6.10;5.70;;;1.30;99.90;;;;;;5056304;28;20212;-64
2022/01/27 10:23:16;;;;;;;6.00;5.60;;;1.40;99.90;;;;;;5056213;28;20311;-62
2022/01/27 10:25:52;;;;;;;6.20;5.80;;;1.40;99.90;;;;;;5056475;28;20298;-62
2022/01/27 10:28:33;;;;;;;5.90;5.50;;;1.50;99.90;;;;;;5056978;28;20215;-64
2022/01/27 10:31:06;;;;;;;6.40;6.00;;;1.40;99.90;;;;;;5056489;28;20218;-63
2022/01/27 10:33:43;;;;;;;6.03;5.63;;;1.40;99.90;;;;;;5056603;28;20255;-61
2022/01/27 10:36:21;;;;;;;6.03;5.60;;;1.40;99.90;;;;;;5059576;28;20213;-62
2022/01/27 10:38:51;;;;;;;5.83;5.43;;;1.50;99.90;;;;;;5050078;28;20211;-64
2022/01/27 10:41:18;;;;;;;5.90;5.50;;;1.50;99.90;;;;;;5064402;28;20257;-63
2022/01/27 10:43:45;;;;;;;6.23;5.83;;;1.50;99.90;;;;;;5062142;28;20310;-62
2022/01/27 10:46:21;;;;;;;5.67;5.27;;;1.60;99.90;;;;;;5058073;28;20226;-63
2022/01/27 10:48:53;;;;;;;5.33;4.93;;;1.60;99.90;;;;;;5057773;28;20204;-63
2022/01/27 10:51:25;;;;;;;5.40;5.10;;;1.80;99.90;;;;;;5058072;28;20192;-62
2022/01/27 10:53:59;;;;;;;5.67;5.37;;;1.90;99.90;;;;;;5052251;28;20896;-62
2022/01/27 10:56:28;;;;;;;5.47;5.17;;;2.00;99.90;;;;;;5055201;28;20204;-62
2022/01/27 10:58:57;;;;;;;5.73;5.33;;;2.10;99.90;;;;;;5058194;28;20227;-63
2022/01/27 11:01:29;;;;;;;6.20;5.80;;;2.10;99.90;;;;;;5058956;28;20208;-62
2022/01/27 11:03:58;;;;;;;5.53;5.23;;;2.20;99.90;;;;;;5040491;28;20208;-62
2022/01/27 11:06:28;;;;;;;6.13;5.73;;;2.20;99.90;;;;;;5036996;28;20236;-62
2022/01/27 11:08:59;;;;;;;5.43;5.13;;;2.20;99.90;;;;;;5037632;28;20197;-61
2022/01/27 11:11:27;;;;;;;5.27;4.87;;;2.20;99.90;;;;;;5037515;28;20196;-61
2022/01/27 11:13:58;;;;;;;5.83;5.53;;;2.30;99.90;;;;;;5037188;28;20231;-62
2022/01/27 11:16:30;;;;;;;5.03;4.73;;;2.30;99.90;;;;;;5037634;28;20654;-60
2022/01/27 11:19:12;;;;;;;5.43;5.13;;;2.30;99.90;;;;;;5038535;28;20209;-62
2022/01/27 11:21:43;;;;;;;5.07;4.77;;;2.40;99.90;;;;;;5045106;28;20231;-64
2022/01/27 11:24:23;;;;;;;5.07;4.77;;;2.40;99.90;;;;;;5042812;28;20307;-62
2022/01/27 11:26:53;;;;;;;4.93;4.63;;;2.40;99.90;;;;;;5037451;28;20204;-63
2022/01/27 11:29:22;;;;;;;5.03;4.73;;;2.40;99.90;;;;;;5036425;28;20279;-61
2022/01/27 11:32:29;;;;;;;5.77;5.40;;;2.30;99.90;;;;;;5037122;28;20263;-61
2022/01/27 11:34:56;;;;;;;5.20;4.90;;;2.40;99.90;;;;;;4996083;28;20284;-62
2022/01/27 11:37:36;;;;;;;5.63;5.33;;;2.30;99.90;;;;;;5029496;28;20292;-61
2022/01/27 11:40:06;;;;;;;5.43;5.13;;;2.30;99.90;;;;;;5036927;28;20193;-62
2022/01/27 11:43:06;;;;;;;5.20;4.87;;;2.30;99.90;;;;;;5036329;28;20224;-63
2022/01/27 11:45:38;;;;;;;5.03;4.73;;;2.30;99.90;;;;;;5038066;28;20579;-61
2022/01/27 11:48:08;;;;;;;4.87;4.47;;;2.30;99.90;;;;;;5038429;28;20217;-63
2022/01/27 11:50:48;;;;;;;5.27;4.97;;;2.40;99.90;;;;;;5038469;28;20270;-64
2022/01/27 11:53:29;;;;;;;4.83;4.53;;;2.50;99.90;;;;;;5039369;28;20228;-61
2022/01/27 11:55:57;;;;;;;5.40;5.10;;;2.60;99.90;;;;;;5047717;28;20200;-62
2022/01/27 11:58:25;;;;;;;4.67;4.43;;;2.60;99.90;;;;;;5041377;28;20224;-62
2022/01/27 12:01:04;;;;;;;5.03;4.73;;;2.70;99.90;;;;;;5037863;28;20205;-63
2022/01/27 12:03:31;;;;;;;4.70;4.40;;;2.70;99.90;;;;;;5037453;28;20251;-64
2022/01/27 12:06:19;;;;;;;5.20;4.90;;;2.80;99.90;;;;;;5037408;28;20240;-63
2022/01/27 12:08:47;;;;;;;4.97;4.67;;;2.80;99.90;;;;;;5038795;28;20243;-63
2022/01/27 12:11:44;;;;;;;5.20;4.90;;;2.80;99.90;;;;;;5039554;28;20292;-64
2022/01/27 12:14:13;;;;;;;5.13;4.83;;;2.90;99.90;;;;;;5040347;28;20213;-63
2022/01/27 12:16:55;;;;;;;4.80;4.50;;;2.90;99.90;;;;;;5039472;28;20212;-64
2022/01/27 12:19:22;;;;;;;4.80;4.50;;;2.90;99.90;;;;;;5038845;28;20213;-63
2022/01/27 12:22:04;;;;;;;4.87;4.53;;;3.00;99.90;;;;;;5035300;28;20248;-63
2022/01/27 12:24:33;;;;;;;4.87;4.57;;;3.10;99.90;;;;;;5035519;28;20220;-62
2022/01/27 12:27:02;;;;;;;5.37;4.97;;;3.10;99.90;;;;;;5039831;28;20205;-62
2022/01/27 12:29:32;;;;;;;5.07;4.77;;;3.20;99.90;;;;;;5040987;28;20299;-63
2022/01/27 12:32:01;;;;;;;4.80;4.50;;;3.30;99.90;;;;;;5039253;28;20316;-62
2022/01/27 12:34:29;;;;;;;5.00;4.70;;;3.30;99.90;;;;;;5036301;28;20702;-63
2022/01/27 12:37:06;;;;;;;4.60;4.30;;;3.30;99.90;;;;;;5036671;28;20702;-62
2022/01/27 12:39:36;;;;;;;4.80;4.50;;;3.30;99.90;;;;;;5035721;28;20251;-63
2022/01/27 12:42:06;;;;;;;4.50;4.20;;;3.40;99.90;;;;;;5037081;28;20746;-63
2022/01/27 12:44:34;;;;;;;4.90;4.60;;;3.40;99.90;;;;;;5036363;28;20205;-61
2022/01/27 12:47:14;;;;;;;4.33;4.03;;;3.40;99.90;;;;;;5050417;28;20629;-62
2022/01/27 12:49:45;;;;;;;4.67;4.37;;;3.40;99.90;;;;;;5056336;28;20196;-62
2022/01/27 12:52:15;;;;;;;4.50;4.20;;;3.40;99.90;;;;;;5056140;28;20236;-61
2022/01/27 12:54:45;;;;;;;4.60;4.30;;;3.50;99.90;;;;;;5056522;28;20677;-62
2022/01/27 12:57:13;;;;;;;4.70;4.40;;;3.50;99.90;;;;;;5057154;28;20235;-62
2022/01/27 12:59:42;;;;;;;5.00;4.70;;;3.50;99.90;;;;;;5061027;28;20250;-63
2022/01/27 13:02:10;;;;;;;4.93;4.63;;;3.60;99.90;;;;;;5067841;28;20259;-62
2022/01/27 13:04:39;;;;;;;4.33;4.03;;;3.60;99.90;;;;;;5057243;28;20294;-63
2022/01/27 13:07:06;;;;;;;4.60;4.30;;;3.60;99.90;;;;;;5057130;28;20242;-61
2022/01/27 13:09:35;;;;;;;4.03;3.83;;;3.60;99.90;;;;;;5056641;28;20709;-62
2022/01/27 13:12:17;;;;;;;4.37;4.07;;;3.70;99.90;;;;;;5056063;28;20281;-62
2022/01/27 13:14:51;;;;;;;4.10;3.90;;;3.70;99.90;;;;;;5056264;28;20208;-63
2022/01/27 13:17:32;;;;;;;4.70;4.40;;;3.70;99.90;;;;;;5068076;28;20285;-61
2022/01/27 13:20:11;;;;;;;4.30;4.10;;;3.80;99.90;;;;;;5049600;28;20212;-63
2022/01/27 13:22:46;;;;;;;3.90;3.70;;;3.70;99.90;;;;;;5057390;28;20270;-63
2022/01/27 13:25:14;;;;;;;4.50;4.20;;;3.80;99.90;;;;;;5057125;28;20253;-63
2022/01/27 13:27:43;;;;;;;4.10;3.90;;;3.80;99.90;;;;;;5056132;28;20212;-63
2022/01/27 13:30:11;;;;;;;4.40;4.10;;;3.90;99.90;;;;;;5055605;28;20212;-64
2022/01/27 13:32:39;;;;;;;4.57;4.27;;;3.90;99.90;;;;;;5059024;28;20251;-63